Time;durP1;ratioP1;P1;durP2;ratioP2;P2;SDS_P1;SDS_P2;PMS_P1;PMS_P2;Temp;Humidity;BMP_temperature;BMP_pressure;BME280_temperature;BME280_humidity;BME280_pressure;Samples;Min_cycle;Max_cycle;Signal;HPM_P1;HPM_P2
2021/10/12 00:00:31;;;;;;;;;5.50;5.50;;;;;12.16;70.84;102509.25;5036432;28;46089;-71
2021/10/12 00:02:56;;;;;;;;;7.50;5.00;;;;;12.15;70.93;102510.13;5032171;28;45377;-71
2021/10/12 00:05:22;;;;;;;;;8.75;4.25;;;;;12.11;70.75;102500.56;5035446;28;45533;-71
2021/10/12 00:07:47;;;;;;;;;5.00;5.00;;;;;12.10;70.90;102501.44;5035234;28;45490;-71
2021/10/12 00:10:13;;;;;;;;;8.75;5.00;;;;;12.08;71.10;102497.97;5036592;28;45502;-71
2021/10/12 00:12:38;;;;;;;;;7.75;6.50;;;;;12.06;71.15;102505.06;5036311;28;45786;-71
2021/10/12 00:15:06;;;;;;;;;4.75;4.00;;;;;12.04;71.25;102501.56;5036132;28;45438;-71
2021/10/12 00:17:31;;;;;;;;;7.75;7.75;;;;;11.99;71.01;102506.06;5029345;28;45537;-71
2021/10/12 00:19:57;;;;;;;;;10.25;4.25;;;;;11.99;71.35;102503.44;5026063;28;46738;-71
2021/10/12 00:22:22;;;;;;;;;7.25;7.25;;;;;11.92;71.37;102496.56;5035547;28;45349;-71
2021/10/12 00:24:47;;;;;;;;;6.25;5.25;;;;;11.90;71.25;102495.72;5036745;28;45352;-71
2021/10/12 00:27:13;;;;;;;;;10.00;6.25;;;;;11.93;71.61;102503.56;5034664;28;45461;-71
2021/10/12 00:29:38;;;;;;;;;8.75;5.00;;;;;11.92;71.83;102509.75;5028002;28;45885;-71
2021/10/12 00:32:04;;;;;;;;;6.25;4.75;;;;;11.86;71.68;102508.09;5029382;28;45364;-71
2021/10/12 00:34:29;;;;;;;;;6.25;5.00;;;;;11.90;71.57;102511.53;5035327;28;45325;-71
2021/10/12 00:36:54;;;;;;;;;5.50;4.75;;;;;11.88;71.59;102511.56;5035549;28;45533;-71
2021/10/12 00:39:20;;;;;;;;;4.75;4.00;;;;;11.86;71.66;102508.09;5035700;28;46062;-71
2021/10/12 00:41:46;;;;;;;;;5.00;5.00;;;;;11.80;71.88;102504.66;5035563;28;45453;-71
2021/10/12 00:44:11;;;;;;;;;3.00;3.00;;;;;11.82;71.80;102506.41;5035858;28;45486;-71
2021/10/12 00:46:37;;;;;;;;;4.00;4.00;;;;;11.81;72.09;102496.75;5035470;28;45524;-71
2021/10/12 00:49:03;;;;;;;;;6.50;4.25;;;;;11.73;71.94;102483.72;5035881;28;46211;-71
2021/10/12 00:51:29;;;;;;;;;5.00;4.25;;;;;11.80;72.31;102496.75;5034664;28;45289;-71
2021/10/12 00:53:54;;;;;;;;;4.75;4.75;;;;;11.78;72.01;102499.44;5035360;28;45373;-71
2021/10/12 00:56:21;;;;;;;;;4.00;4.00;;;;;11.76;72.14;102488.06;5035662;28;45493;-71
2021/10/12 00:58:47;;;;;;;;;8.75;2.00;;;;;11.74;72.08;102485.47;5029829;28;46228;-71
2021/10/12 01:01:13;;;;;;;;;8.75;7.25;;;;;11.73;72.06;102474.97;5035688;28;45589;-71
2021/10/12 01:03:39;;;;;;;;;10.00;4.50;;;;;11.72;72.13;102476.72;5024871;28;46765;-71
2021/10/12 01:06:05;;;;;;;;;5.00;3.75;;;;;11.71;71.90;102472.38;5034320;28;45656;-71
2021/10/12 01:08:30;;;;;;;;;4.75;4.00;;;;;11.68;71.81;102475.03;5034398;28;46081;-71
2021/10/12 01:10:57;;;;;;;;;9.75;6.50;;;;;11.65;71.99;102464.59;5034474;28;45544;-71
2021/10/12 01:13:24;;;;;;;;;18.75;15.00;;;;;11.63;72.33;102465.50;5035414;28;45718;-71
2021/10/12 01:15:51;;;;;;;;;47.75;32.50;;;;;11.62;72.65;102467.28;5034642;28;45431;-71
2021/10/12 01:18:16;;;;;;;;;28.00;23.00;;;;;11.60;72.26;102458.53;5034923;28;45403;-71
2021/10/12 01:20:43;;;;;;;;;37.00;31.00;;;;;11.57;72.47;102460.34;5033820;28;45532;-71
2021/10/12 01:23:09;;;;;;;;;32.75;23.75;;;;;11.56;72.67;102448.97;5034586;28;45506;-71
2021/10/12 01:25:34;;;;;;;;;27.00;25.00;;;;;11.55;72.84;102454.28;5035298;28;45379;-71
2021/10/12 01:28:00;;;;;;;;;25.00;13.25;;;;;11.44;72.93;102443.94;5033946;28;46265;-73
2021/10/12 01:30:26;;;;;;;;;11.75;8.50;;;;;11.39;72.60;102430.88;5025534;28;45995;-72
2021/10/12 01:32:52;;;;;;;;;11.75;8.00;;;;;11.44;73.01;102446.59;5034275;28;45382;-72
2021/10/12 01:35:18;;;;;;;;;10.75;7.00;;;;;11.42;73.19;102437.81;5034551;28;45451;-72
2021/10/12 01:37:43;;;;;;;;;8.50;5.25;;;;;11.38;72.74;102434.41;5034387;28;45663;-72
2021/10/12 01:40:11;;;;;;;;;7.00;7.00;;;;;11.34;72.91;102435.34;5034000;28;45692;-72
2021/10/12 01:42:36;;;;;;;;;6.50;4.25;;;;;11.32;73.31;102426.59;5035100;28;45407;-72
2021/10/12 01:45:06;;;;;;;;;6.00;6.00;;;;;11.29;73.05;102421.41;5030044;28;45709;-72
2021/10/12 01:47:31;;;;;;;;;8.25;8.25;;;;;11.27;73.01;102417.91;5026298;28;46159;-72
2021/10/12 01:49:56;;;;;;;;;6.00;6.00;;;;;11.24;73.13;102403.06;5029059;28;45362;-72
2021/10/12 01:52:22;;;;;;;;;11.50;8.25;;;;;11.24;72.77;102392.53;5034594;28;45765;-72
2021/10/12 01:54:48;;;;;;;;;6.25;5.50;;;;;11.23;73.33;102406.59;5034435;28;45511;-72
2021/10/12 01:57:13;;;;;;;;;10.25;7.25;;;;;11.23;73.07;102403.97;5034262;28;46188;-72
2021/10/12 01:59:39;;;;;;;;;7.00;7.00;;;;;11.21;73.27;102404.88;5049430;28;45526;-72
2021/10/12 02:02:05;;;;;;;;;9.75;8.25;;;;;11.11;73.34;102390.16;5033686;28;46948;-72
2021/10/12 02:04:31;;;;;;;;;16.50;13.75;;;;;11.12;73.14;102397.16;5034278;28;45427;-72
2021/10/12 02:06:57;;;;;;;;;14.75;10.25;;;;;11.13;73.40;102418.19;5034207;28;46059;-72
2021/10/12 02:09:22;;;;;;;;;16.00;12.25;;;;;11.09;73.70;102410.38;5034037;28;45517;-72
2021/10/12 02:11:48;;;;;;;;;25.75;21.25;;;;;11.04;73.74;102405.22;5034416;28;45693;-72
2021/10/12 02:14:13;;;;;;;;;21.00;15.00;;;;;11.08;73.56;102422.69;5033515;28;45492;-72
2021/10/12 02:16:39;;;;;;;;;28.50;19.75;;;;;11.06;73.43;102415.69;5033649;28;45375;-72
2021/10/12 02:19:04;;;;;;;;;21.00;15.00;;;;;11.05;73.57;102412.19;5033464;28;45829;-72
2021/10/12 02:21:30;;;;;;;;;21.25;18.00;;;;;11.04;73.60;102404.34;5035351;28;45438;-72
2021/10/12 02:23:55;;;;;;;;;22.00;14.75;;;;;10.95;73.56;102395.69;5033952;28;45490;-72
2021/10/12 02:26:20;;;;;;;;;16.25;13.00;;;;;10.97;73.83;102404.47;5033843;28;45304;-72
2021/10/12 02:28:46;;;;;;;;;15.75;12.25;;;;;10.98;73.62;102402.69;5034073;28;45962;-72
2021/10/12 02:31:12;;;;;;;;;14.75;13.50;;;;;10.95;73.91;102384.31;5036670;28;46385;-72
2021/10/12 02:33:37;;;;;;;;;15.25;10.75;;;;;10.92;73.86;102381.75;5034807;28;45510;-72
2021/10/12 02:36:03;;;;;;;;;14.25;12.25;;;;;10.91;74.20;102377.38;5033431;28;46073;-72
2021/10/12 02:38:28;;;;;;;;;13.25;8.00;;;;;10.91;74.20;102378.25;5033103;28;45538;-72
2021/10/12 02:40:54;;;;;;;;;15.25;10.00;;;;;10.90;73.81;102391.41;5033731;28;45585;-72
2021/10/12 02:43:19;;;;;;;;;13.50;9.75;;;;;10.83;73.91;102385.41;5033960;28;45482;-72
2021/10/12 02:45:45;;;;;;;;;12.25;8.75;;;;;10.82;73.82;102398.59;5034127;28;46033;-72
2021/10/12 02:48:11;;;;;;;;;11.00;9.50;;;;;10.70;74.21;102379.50;5033660;28;45653;-71
2021/10/12 02:50:36;;;;;;;;;13.50;8.75;;;;;10.75;73.94;102392.56;5033628;28;45469;-71
2021/10/12 02:53:02;;;;;;;;;10.75;8.00;;;;;10.71;73.82;102390.91;5033741;28;45694;-72
2021/10/12 02:55:27;;;;;;;;;9.00;9.00;;;;;10.70;74.23;102386.50;5033778;28;45930;-72
2021/10/12 02:57:52;;;;;;;;;9.50;6.25;;;;;10.69;74.25;102377.75;5034083;28;45258;-72
2021/10/12 03:00:18;;;;;;;;;13.50;8.75;;;;;10.68;74.26;102375.16;5023376;28;45863;-72
2021/10/12 03:02:43;;;;;;;;;11.50;8.00;;;;;10.66;73.98;102377.81;5033585;28;45345;-72
2021/10/12 03:05:09;;;;;;;;;14.75;9.00;;;;;10.63;74.13;102388.38;5032696;28;45329;-72
2021/10/12 03:07:34;;;;;;;;;7.50;7.50;;;;;10.61;74.40;102379.66;5032217;28;45492;-72
2021/10/12 03:09:59;;;;;;;;;7.00;7.00;;;;;10.59;74.56;102375.31;5033351;28;45524;-72
2021/10/12 03:12:25;;;;;;;;;8.75;7.00;;;;;10.51;74.12;102370.19;5034578;28;45477;-72
2021/10/12 03:14:50;;;;;;;;;8.75;4.75;;;;;10.50;74.48;102376.34;5033700;28;45575;-72
2021/10/12 03:17:16;;;;;;;;;12.00;7.00;;;;;10.54;74.53;102383.25;5037115;28;45550;-72
2021/10/12 03:19:41;;;;;;;;;7.75;4.25;;;;;10.49;74.19;102390.34;5018946;28;45610;-72
2021/10/12 03:22:15;;;;;;;;;4.67;4.67;;;;;10.51;74.88;102391.22;5036462;28;46901;-72
2021/10/12 03:24:40;;;;;;;;;6.50;6.50;;;;;10.49;74.84;102378.97;5032141;28;47189;-72
2021/10/12 03:27:08;;;;;;;;;8.00;6.00;;;;;10.49;74.52;102373.72;5036500;28;45406;-72
2021/10/12 03:29:34;;;;;;;;;6.25;5.50;;;;;10.46;74.88;102366.78;5036415;28;45489;-72
2021/10/12 03:31:59;;;;;;;;;6.75;6.50;;;;;10.40;74.92;102351.97;5036643;28;45524;-71
2021/10/12 03:34:27;;;;;;;;;7.00;5.00;;;;;10.39;75.41;102345.00;5036491;28;46016;-72
2021/10/12 03:36:53;;;;;;;;;9.50;6.00;;;;;10.41;74.86;102355.47;5036487;28;45486;-72
2021/10/12 03:39:18;;;;;;;;;7.00;5.75;;;;;10.39;74.74;102359.88;5036513;28;45437;-72
2021/10/12 03:41:43;;;;;;;;;6.75;6.00;;;;;10.37;74.89;102359.88;5028291;28;48428;-72
2021/10/12 03:44:09;;;;;;;;;6.75;5.50;;;;;10.36;74.98;102373.94;5025303;28;46094;-72
2021/10/12 03:46:34;;;;;;;;;6.75;4.00;;;;;10.34;74.89;102362.59;5036706;28;45590;-72
2021/10/12 03:48:59;;;;;;;;;9.00;6.33;;;;;10.32;74.92;102366.97;5036082;28;51280;-72
2021/10/12 03:51:24;;;;;;;;;13.50;8.50;;;;;10.31;74.80;102359.13;5037126;28;45498;-72
2021/10/12 03:53:50;;;;;;;;;7.25;7.25;;;;;10.30;74.88;102365.28;5035486;28;45477;-72
2021/10/12 03:56:15;;;;;;;;;12.25;7.75;;;;;10.30;74.87;102365.28;5036285;28;45228;-72
2021/10/12 03:58:41;;;;;;;;;8.00;5.25;;;;;10.29;75.06;102361.78;5035565;28;45531;-72
2021/10/12 04:01:06;;;;;;;;;8.75;7.50;;;;;10.20;75.27;102341.75;5036855;28;45387;-72
2021/10/12 04:03:32;;;;;;;;;5.50;5.50;;;;;10.24;75.09;102352.25;5036523;28;46030;-72
2021/10/12 04:05:57;;;;;;;;;6.75;6.25;;;;;10.23;75.32;102358.34;5036056;28;45433;-71
2021/10/12 04:08:22;;;;;;;;;6.00;6.00;;;;;10.20;75.04;102346.13;5030315;28;45400;-72
2021/10/12 04:10:48;;;;;;;;;7.00;6.00;;;;;10.18;75.02;102345.31;5027414;28;45665;-72
2021/10/12 04:13:13;;;;;;;;;9.00;6.00;;;;;10.17;75.38;102343.53;5022844;28;48831;-72
2021/10/12 04:15:38;;;;;;;;;8.50;6.25;;;;;10.17;75.13;102354.91;5026612;28;45700;-72
2021/10/12 04:18:04;;;;;;;;;8.25;6.00;;;;;10.17;75.17;102359.31;5031408;28;45630;-72
2021/10/12 04:20:29;;;;;;;;;7.00;7.00;;;;;10.14;74.98;102344.47;5036037;28;45531;-72
2021/10/12 04:22:56;;;;;;;;;10.00;6.75;;;;;10.14;75.74;102347.09;5035919;28;45894;-72
2021/10/12 04:25:22;;;;;;;;;7.50;7.00;;;;;10.13;75.33;102355.00;5036216;28;45980;-72
2021/10/12 04:27:49;;;;;;;;;8.50;6.75;;;;;10.11;75.16;102352.38;5024260;28;45349;-72
2021/10/12 04:30:14;;;;;;;;;6.50;6.50;;;;;10.09;75.26;102351.56;5034717;28;45524;-72
2021/10/12 04:32:40;;;;;;;;;8.00;7.00;;;;;10.08;75.25;102354.22;5035589;28;45460;-72
2021/10/12 04:35:05;;;;;;;;;4.00;4.00;;;;;10.07;75.00;102357.69;5034934;28;48134;-71
2021/10/12 04:37:31;;;;;;;;;6.00;5.00;;;;;9.97;75.14;102330.72;5033009;28;45503;-72
2021/10/12 04:39:57;;;;;;;;;10.00;6.00;;;;;10.04;75.49;102350.75;5034654;28;45289;-72
2021/10/12 04:42:22;;;;;;;;;7.75;6.00;;;;;9.97;75.30;102337.72;5033402;28;46293;-72
2021/10/12 04:44:49;;;;;;;;;6.00;6.00;;;;;9.94;74.99;102341.28;5030853;28;45772;-72
2021/10/12 04:47:16;;;;;;;;;5.50;1.50;;;;;9.99;75.22;102349.09;5034433;28;46377;-72
2021/10/12 04:49:41;;;;;;;;;7.00;6.00;;;;;9.98;75.40;102347.34;5036186;28;45541;-71
2021/10/12 04:52:06;;;;;;;;;7.00;6.75;;;;;9.96;75.75;102344.72;5035926;28;45429;-72
2021/10/12 04:54:32;;;;;;;;;10.25;6.25;;;;;9.95;75.53;102350.88;5038201;28;45530;-72
2021/10/12 04:56:57;;;;;;;;;6.00;4.00;;;;;9.96;75.56;102351.75;5013201;28;45730;-73
2021/10/12 04:59:22;;;;;;;;;7.75;6.50;;;;;9.92;75.11;102348.31;5036370;28;47706;-72
2021/10/12 05:01:48;;;;;;;;;8.00;6.67;;;;;9.93;75.82;102344.78;5045188;28;60565;-72
2021/10/12 05:04:13;;;;;;;;;7.25;7.25;;;;;9.92;75.66;102348.31;5035572;28;45545;-72
2021/10/12 05:06:38;;;;;;;;;6.75;5.00;;;;;9.91;75.34;102354.44;5035574;28;45273;-72
2021/10/12 05:09:04;;;;;;;;;12.75;7.00;;;;;9.87;75.73;102350.13;5038746;28;45582;-72
2021/10/12 05:11:29;;;;;;;;;8.00;8.00;;;;;9.83;75.68;102353.69;5032627;28;45568;-72
2021/10/12 05:13:56;;;;;;;;;5.00;3.00;;;;;9.87;75.55;102350.13;5033805;28;45262;-71
2021/10/12 05:16:23;;;;;;;;;9.00;9.00;;;;;9.86;75.51;102351.00;5035115;28;45576;-72
2021/10/12 05:18:50;;;;;;;;;13.50;9.50;;;;;9.85;75.60;102350.13;5035151;28;45379;-72
2021/10/12 05:21:15;;;;;;;;;12.50;9.25;;;;;9.83;75.45;102346.69;5034880;28;46238;-71
2021/10/12 05:23:41;;;;;;;;;11.50;8.50;;;;;9.84;75.74;102356.28;5033932;28;45522;-71
2021/10/12 05:26:06;;;;;;;;;7.67;7.67;;;;;9.84;75.81;102337.03;5034310;28;46873;-72
2021/10/12 05:28:34;;;;;;;;;6.50;6.50;;;;;9.84;75.75;102337.03;5035279;28;45365;-72
2021/10/12 05:30:59;;;;;;;;;11.75;11.75;;;;;9.84;76.08;102351.03;5034656;28;46266;-72
2021/10/12 05:33:25;;;;;;;;;7.75;7.75;;;;;9.84;75.83;102350.16;5035336;28;45485;-72
2021/10/12 05:35:50;;;;;;;;;11.75;8.50;;;;;9.80;75.89;102330.94;5034632;28;45426;-72
2021/10/12 05:38:18;;;;;;;;;7.25;7.25;;;;;9.89;76.01;102346.59;5034147;28;45495;-72
2021/10/12 05:40:43;;;;;;;;;6.00;6.00;;;;;9.90;76.07;102337.81;5032737;28;47099;-72
2021/10/12 05:43:10;;;;;;;;;8.25;7.25;;;;;9.96;75.99;102349.97;5014624;28;45763;-72
2021/10/12 05:45:35;;;;;;;;;8.50;6.50;;;;;10.01;76.68;102344.66;5033746;28;45591;-72
2021/10/12 05:48:03;;;;;;;;;9.25;6.00;;;;;10.07;76.21;102340.19;5034784;28;45567;-72
2021/10/12 05:50:28;;;;;;;;;10.50;7.75;;;;;10.12;76.47;102332.22;5033157;28;46108;-72
2021/10/12 05:53:06;;;;;;;;;12.50;8.50;;;;;10.16;76.59;102334.78;5034932;28;45480;-72
2021/10/12 05:58:14;;;;;;;;;10.25;6.00;;;;;10.23;76.15;102340.81;5025190;28;45368;-72
2021/10/12 06:00:39;;;;;;;;;7.50;7.50;;;;;10.24;76.22;102337.34;5030240;28;46412;-72
2021/10/12 06:03:04;;;;;;;;;9.00;8.50;;;;;10.24;76.02;102344.38;5034141;28;45410;-72
2021/10/12 06:05:30;;;;;;;;;8.50;8.00;;;;;10.24;76.54;102336.47;5034367;28;45496;-72
2021/10/12 06:07:55;;;;;;;;;7.00;6.00;;;;;10.22;76.20;102344.34;5033365;28;52751;-72
2021/10/12 06:10:21;;;;;;;;;10.50;8.50;;;;;10.19;76.16;102337.38;5033212;28;46292;-72
2021/10/12 06:12:46;;;;;;;;;11.00;8.50;;;;;10.17;76.28;102336.53;5034877;28;45359;-71
2021/10/12 06:15:11;;;;;;;;;10.75;8.25;;;;;10.16;76.46;102331.31;5033563;28;45538;-72
2021/10/12 06:17:36;;;;;;;;;11.50;8.75;;;;;10.19;76.35;102332.13;5034570;28;45509;-72
2021/10/12 06:20:03;;;;;;;;;11.67;6.67;;;;;10.20;76.14;102336.47;5033612;28;55259;-71
2021/10/12 06:22:28;;;;;;;;;14.50;10.75;;;;;10.20;76.49;102333.84;5034117;28;45941;-71
2021/10/12 06:24:53;;;;;;;;;10.50;7.75;;;;;10.22;76.29;102336.44;5034116;28;45445;-71
2021/10/12 06:27:20;;;;;;;;;12.50;8.50;;;;;10.25;76.19;102328.56;5035086;28;48845;-72
2021/10/12 06:29:46;;;;;;;;;9.50;7.50;;;;;10.28;75.99;102333.75;5034085;28;46200;-72
2021/10/12 06:32:11;;;;;;;;;11.75;11.00;;;;;10.30;75.89;102337.25;5032627;28;45532;-72
2021/10/12 06:34:36;;;;;;;;;12.00;10.75;;;;;10.34;75.97;102336.31;5034139;28;45455;-72
2021/10/12 06:37:02;;;;;;;;;18.25;9.00;;;;;10.36;76.02;102337.13;5037107;28;45328;-72
2021/10/12 06:39:27;;;;;;;;;13.75;11.25;;;;;10.40;76.17;102330.09;5032723;28;46093;-72
2021/10/12 06:41:52;;;;;;;;;13.75;11.75;;;;;10.42;76.46;102336.16;5033004;28;46739;-72
2021/10/12 06:44:18;;;;;;;;;12.75;12.75;;;;;10.44;76.03;102337.03;5032528;28;45498;-72
2021/10/12 06:46:43;;;;;;;;;13.25;10.25;;;;;10.48;75.87;102333.44;5033701;28;45851;-72
2021/10/12 06:49:08;;;;;;;;;13.50;12.50;;;;;10.56;76.18;102338.56;5031911;28;45654;-72
2021/10/12 06:51:34;;;;;;;;;16.50;12.25;;;;;10.62;76.09;102336.69;5033148;28;45712;-72
2021/10/12 06:53:59;;;;;;;;;14.00;10.00;;;;;10.71;75.76;102343.56;5031481;28;45398;-72
2021/10/12 06:56:24;;;;;;;;;15.25;14.00;;;;;10.78;76.49;102332.03;5033452;28;45574;-71
2021/10/12 06:58:50;;;;;;;;;14.25;11.50;;;;;10.93;76.50;102334.38;5032586;28;46864;-72
2021/10/12 07:01:15;;;;;;;;;10.75;10.75;;;;;11.08;76.36;102341.13;5032460;28;50485;-72
2021/10/12 07:03:40;;;;;;;;;10.75;10.75;;;;;11.25;76.42;102346.03;5033499;28;45450;-72
2021/10/12 07:06:06;;;;;;;;;16.00;14.67;;;;;11.47;76.53;102346.47;5032499;28;54366;-72
2021/10/12 07:08:31;;;;;;;;;14.75;14.50;;;;;11.83;76.15;102338.69;5031977;28;46111;-72
2021/10/12 07:10:56;;;;;;;;;24.75;14.75;;;;;12.21;75.18;102337.78;5032761;28;45331;-72
2021/10/12 07:13:29;;;;;;;;;13.75;9.75;;;;;12.79;75.14;102334.56;5030720;28;45518;-72
2021/10/12 07:15:56;;;;;;;;;15.00;12.25;;;;;13.48;73.40;102340.56;5031989;28;45404;-73
2021/10/12 07:18:22;;;;;;;;;10.50;9.00;;;;;13.90;71.96;102321.69;5033142;28;46083;-72
2021/10/12 07:20:47;;;;;;;;;11.25;11.25;;;;;14.08;71.59;102315.78;5032786;28;45528;-72
2021/10/12 07:23:14;;;;;;;;;12.50;10.00;;;;;14.31;70.70;102317.72;5031943;28;45403;-72
2021/10/12 07:25:39;;;;;;;;;12.25;9.00;;;;;14.88;70.74;102315.78;5033448;28;45637;-72
2021/10/12 07:28:05;;;;;;;;;10.25;10.25;;;;;15.48;69.55;102318.84;5032900;28;46355;-72
2021/10/12 07:30:30;;;;;;;;;14.00;11.50;;;;;16.57;69.19;102316.19;5034204;28;45429;-72
2021/10/12 07:32:55;;;;;;;;;11.50;11.00;;;;;18.15;66.78;102309.81;5032667;28;45437;-72
2021/10/12 07:35:21;;;;;;;;;10.75;8.00;;;;;19.59;63.68;102288.94;5032644;28;53872;-71
2021/10/12 07:37:46;;;;;;;;;11.50;10.25;;;;;21.30;61.11;102301.94;5032022;28;46081;-72
2021/10/12 07:40:12;;;;;;;;;12.50;9.00;;;;;22.83;58.91;102307.81;5032993;28;55184;-72
2021/10/12 07:42:37;;;;;;;;;10.75;9.25;;;;;24.13;56.26;102306.44;5032996;28;45316;-72
2021/10/12 07:45:03;;;;;;;;;10.75;7.50;;;;;25.12;53.16;102288.00;5032928;28;45743;-72
2021/10/12 07:47:29;;;;;;;;;8.50;8.25;;;;;25.88;52.72;102285.44;5032926;28;45565;-72
2021/10/12 07:49:54;;;;;;;;;10.00;9.00;;;;;26.38;50.65;102291.94;5014546;28;51580;-72
2021/10/12 07:52:20;;;;;;;;;10.75;8.50;;;;;27.11;48.89;102300.94;5031703;28;45568;-72
2021/10/12 07:54:46;;;;;;;;;8.50;8.50;;;;;27.76;47.36;102304.94;5032276;28;45504;-72
2021/10/12 07:57:16;;;;;;;;;14.75;9.75;;;;;28.48;45.57;102301.00;5032108;28;46094;-73
2021/10/12 07:59:42;;;;;;;;;13.00;11.00;;;;;29.29;44.26;102300.47;5032209;28;45697;-72
2021/10/12 08:02:11;;;;;;;;;9.25;9.25;;;;;30.08;43.55;102289.81;5033698;28;45646;-72
2021/10/12 08:04:38;;;;;;;;;14.00;11.25;;;;;30.90;42.30;102291.28;5035376;28;45619;-72
2021/10/12 08:07:03;;;;;;;;;8.25;8.00;;;;;31.78;41.52;102299.06;5036464;28;45840;-72
2021/10/12 08:09:28;;;;;;;;;10.75;9.75;;;;;32.52;40.11;102294.53;5036481;28;46918;-72
2021/10/12 08:11:54;;;;;;;;;12.50;10.75;;;;;33.08;38.86;102286.41;5035133;28;52660;-72
2021/10/12 08:14:21;;;;;;;;;10.75;10.25;;;;;33.63;36.88;102293.66;5035764;28;45414;-72
2021/10/12 08:16:46;;;;;;;;;8.75;8.50;;;;;34.19;36.08;102289.66;5036530;28;45446;-72
2021/10/12 08:19:12;;;;;;;;;11.50;10.50;;;;;34.77;35.46;102276.31;5035663;28;45349;-72
2021/10/12 08:21:38;;;;;;;;;13.50;8.50;;;;;35.33;34.69;102284.00;5034695;28;45518;-72
2021/10/12 08:24:05;;;;;;;;;12.25;11.00;;;;;35.84;33.47;102289.41;5035948;28;45347;-72
2021/10/12 08:26:31;;;;;;;;;14.50;11.50;;;;;36.22;33.01;102292.72;5035448;28;46329;-72
2021/10/12 08:28:56;;;;;;;;;18.00;12.75;;;;;36.40;32.09;102295.84;5035509;28;45345;-72
2021/10/12 08:31:22;;;;;;;;;14.25;13.00;;;;;36.73;31.44;102296.06;5035962;28;45589;-72
2021/10/12 08:33:48;;;;;;;;;11.00;9.00;;;;;37.11;30.94;102298.41;5035174;28;45502;-72
2021/10/12 08:36:14;;;;;;;;;13.00;10.75;;;;;37.56;30.34;102285.09;5035148;28;45512;-72
2021/10/12 08:38:41;;;;;;;;;13.50;10.75;;;;;38.05;29.48;102281.16;5035263;28;46728;-71
2021/10/12 08:41:07;;;;;;;;;14.00;10.00;;;;;38.60;28.85;102279.88;5033673;28;45427;-72
2021/10/12 08:43:37;;;;;;;;;12.75;11.50;;;;;39.06;28.40;102280.81;5032509;28;45505;-71
2021/10/12 08:46:04;;;;;;;;;12.25;12.00;;;;;39.27;27.27;102276.94;5033524;28;45417;-72
2021/10/12 08:48:32;;;;;;;;;11.50;10.75;;;;;39.55;27.41;102271.88;5033117;28;45693;-70
2021/10/12 08:50:59;;;;;;;;;12.00;11.50;;;;;39.86;26.60;102261.94;5040038;28;45458;-72
2021/10/12 08:53:27;;;;;;;;;15.00;10.75;;;;;40.10;26.20;102263.91;5034206;28;45685;-73
2021/10/12 08:55:52;;;;;;;;;12.75;10.00;;;;;40.59;26.30;102258.56;5033648;28;46916;-70
2021/10/12 08:58:18;;;;;;;;;12.50;11.00;;;;;40.84;25.21;102261.22;5037523;28;45478;-72
2021/10/12 09:00:43;;;;;;;;;11.50;9.75;;;;;41.10;24.60;102265.59;5043508;28;45533;-73
2021/10/12 09:06:03;;;;;;;;;9.50;9.50;;;;;41.72;23.92;102253.22;5042691;28;46038;-70
2021/10/12 09:08:35;;;;;;;;;10.50;9.00;;;;;42.00;24.31;102251.72;5041168;28;45680;-73
2021/10/12 09:11:03;;;;;;;;;11.25;9.00;;;;;42.08;23.90;102254.13;5041213;28;45420;-72
2021/10/12 09:13:28;;;;;;;;;11.25;10.75;;;;;41.50;23.57;102248.47;5039190;28;45506;-72
2021/10/12 09:16:04;;;;;;;;;10.50;9.75;;;;;41.02;23.61;102247.44;5038856;28;46389;-72
2021/10/12 09:18:53;;;;;;;;;9.75;9.25;;;;;38.87;24.47;102238.59;5036609;28;45834;-73
2021/10/12 09:21:23;;;;;;;;;13.00;10.25;;;;;37.13;25.77;102235.16;5042937;28;45321;-72
2021/10/12 09:23:50;;;;;;;;;12.50;10.50;;;;;35.22;26.36;102236.13;5039076;28;45505;-71
2021/10/12 09:26:22;;;;;;;;;11.25;9.75;;;;;33.41;27.53;102232.59;5034586;28;46360;-72
2021/10/12 09:28:50;;;;;;;;;9.25;9.25;;;;;32.41;28.95;102229.59;5033523;28;45729;-71
2021/10/12 09:31:16;;;;;;;;;12.00;12.00;;;;;31.40;29.51;102238.88;5034702;28;45550;-72
2021/10/12 09:33:49;;;;;;;;;8.50;7.75;;;;;30.29;30.57;102229.84;5034047;28;45512;-73
2021/10/12 09:36:33;;;;;;;;;11.25;10.25;;;;;29.96;31.78;102231.41;5033511;28;46118;-71
2021/10/12 09:38:58;;;;;;;;;10.00;9.25;;;;;30.49;31.33;102232.31;5033247;28;45604;-71
2021/10/12 09:41:28;;;;;;;;;15.50;12.00;;;;;30.91;31.49;102227.84;5034750;28;45471;-71
2021/10/12 09:44:06;;;;;;;;;12.25;10.25;;;;;31.33;30.88;102231.56;5034008;28;45412;-71
2021/10/12 09:46:32;;;;;;;;;15.00;13.00;;;;;31.77;30.78;102223.97;5020674;28;47594;-71
2021/10/12 09:49:11;;;;;;;;;10.25;10.00;;;;;32.04;30.86;102228.25;5034274;28;45751;-71
2021/10/12 09:51:41;;;;;;;;;13.00;11.00;;;;;32.06;30.56;102217.22;5030957;28;45364;-71
2021/10/12 09:54:20;;;;;;;;;11.75;9.50;;;;;32.17;30.26;102223.16;5033212;28;45545;-73
2021/10/12 09:56:46;;;;;;;;;11.75;9.25;;;;;32.45;30.42;102225.50;5029391;28;45628;-71
2021/10/12 09:59:12;;;;;;;;;14.00;9.00;;;;;32.77;30.11;102218.25;5029391;28;46979;-71
2021/10/12 10:01:38;;;;;;;;;9.50;8.25;;;;;33.05;29.96;102218.69;5031341;28;48908;-71
2021/10/12 10:04:04;;;;;;;;;14.75;10.50;;;;;33.42;29.39;102220.72;5033644;28;45477;-71
2021/10/12 10:06:29;;;;;;;;;10.50;9.50;;;;;33.64;29.86;102216.28;5033695;28;45586;-71
2021/10/12 10:08:57;;;;;;;;;14.00;10.50;;;;;33.05;29.30;102203.19;5033270;28;45510;-71
2021/10/12 10:11:23;;;;;;;;;10.50;10.00;;;;;32.57;29.55;102210.50;5034204;28;45559;-71
2021/10/12 10:13:49;;;;;;;;;9.50;8.50;;;;;32.20;30.49;102213.78;5033114;28;45622;-71
2021/10/12 10:16:15;;;;;;;;;10.25;6.75;;;;;31.88;31.39;102206.50;5032552;28;46350;-71
2021/10/12 10:18:43;;;;;;;;;8.00;8.00;;;;;31.59;31.25;102199.69;5034234;28;45955;-71
2021/10/12 10:21:11;;;;;;;;;9.25;6.25;;;;;31.33;31.60;102210.69;5033535;28;45534;-71
2021/10/12 10:23:52;;;;;;;;;10.50;8.00;;;;;30.85;31.03;102176.94;5034052;28;45422;-71
2021/10/12 10:26:42;;;;;;;;;9.25;7.00;;;;;30.71;31.26;102204.69;5033215;28;45378;-71
2021/10/12 10:29:37;;;;;;;;;7.75;7.00;;;;;30.14;32.60;102198.88;5033253;28;45470;-71
2021/10/12 10:32:21;;;;;;;;;7.00;7.00;;;;;29.47;33.00;102197.56;5033551;28;45532;-71
2021/10/12 10:35:00;;;;;;;;;12.00;9.00;;;;;28.84;33.38;102199.22;5016836;28;45516;-72
2021/10/12 10:37:28;;;;;;;;;7.75;7.00;;;;;28.33;33.42;102191.59;5033773;28;46206;-71
2021/10/12 10:40:01;;;;;;;;;8.75;8.75;;;;;27.85;34.16;102197.06;5032764;28;45484;-72
2021/10/12 10:42:26;;;;;;;;;6.75;6.75;;;;;27.28;34.23;102191.44;5032473;28;45368;-72
2021/10/12 10:44:53;;;;;;;;;9.00;8.33;;;;;26.80;35.23;102184.06;5032875;28;45470;-72
2021/10/12 10:47:40;;;;;;;;;8.75;6.00;;;;;26.62;35.71;102177.56;5033073;28;45932;-72
2021/10/12 10:50:18;;;;;;;;;8.25;7.25;;;;;26.43;36.11;102175.66;5030534;28;45550;-72
2021/10/12 10:52:46;;;;;;;;;7.25;7.00;;;;;26.21;36.61;102166.72;5032964;28;45527;-72
2021/10/12 10:55:19;;;;;;;;;8.50;7.50;;;;;25.94;36.71;102177.16;5033017;28;45555;-72
2021/10/12 10:58:13;;;;;;;;;8.50;6.25;;;;;25.42;36.71;102178.81;5036751;28;46091;-72
2021/10/12 11:00:51;;;;;;;;;5.75;5.00;;;;;24.81;37.32;102173.94;5032885;28;45509;-72
2021/10/12 11:03:32;;;;;;;;;6.75;6.00;;;;;24.46;38.66;102182.97;5014088;28;45564;-71
2021/10/12 11:06:05;;;;;;;;;7.25;7.00;;;;;24.40;39.00;102180.75;5030656;28;45542;-71
2021/10/12 11:08:33;;;;;;;;;7.50;6.00;;;;;24.39;38.83;102176.38;5032902;28;47125;-71
2021/10/12 11:11:03;;;;;;;;;10.50;6.75;;;;;24.56;38.87;102164.28;5033038;28;45836;-71
2021/10/12 11:13:35;;;;;;;;;6.00;5.00;;;;;24.46;38.91;102160.59;5032674;28;46021;-71
2021/10/12 11:16:02;;;;;;;;;6.50;4.00;;;;;24.66;39.44;102161.72;5031805;28;45537;-72
2021/10/12 11:18:28;;;;;;;;;6.00;6.00;;;;;24.96;39.36;102155.69;5033813;28;45495;-71
2021/10/12 11:20:57;;;;;;;;;4.75;4.50;;;;;25.25;38.90;102148.78;5048247;28;45380;-72
2021/10/12 11:23:34;;;;;;;;;7.50;5.00;;;;;25.30;38.26;102153.78;5032619;28;45390;-72